createdAt,value
2018-10-18T00:00:26.162Z,99.99
2018-10-18T00:01:26.128Z,99.99
2018-10-18T00:02:26.119Z,99.93
2018-10-18T00:03:26.255Z,99.93
2018-10-18T00:04:26.109Z,99.99
2018-10-18T00:05:26.086Z,99.99
2018-10-18T00:06:26.094Z,99.99
2018-10-18T00:07:26.065Z,99.99
2018-10-18T00:08:26.058Z,99.99
2018-10-18T00:09:26.060Z,99.93
2018-10-18T00:10:26.032Z,99.97
2018-10-18T00:11:26.023Z,99.99
2018-10-18T00:12:26.027Z,99.99
2018-10-18T00:13:26.002Z,99.99
2018-10-18T00:14:26.003Z,99.91
2018-10-18T00:15:25.976Z,99.91
2018-10-18T00:16:25.966Z,99.99
2018-10-18T00:17:25.954Z,99.91
2018-10-18T00:18:25.965Z,99.99
2018-10-18T00:19:25.948Z,99.99
2018-10-18T00:20:25.922Z,99.99
2018-10-18T00:21:25.924Z,99.99
2018-10-18T00:22:25.900Z,99.99
2018-10-18T00:23:25.892Z,99.99
2018-10-18T00:24:25.902Z,99.99
2018-10-18T00:25:25.879Z,99.99
2018-10-18T00:26:25.870Z,99.99
2018-10-18T00:27:25.846Z,99.99
2018-10-18T00:28:25.834Z,99.99
2018-10-18T00:29:25.838Z,99.99
2018-10-18T00:30:25.813Z,99.99
2018-10-18T00:31:25.847Z,99.99
2018-10-18T00:32:25.824Z,99.99
2018-10-18T00:33:25.779Z,99.99
2018-10-18T00:34:25.784Z,99.99
2018-10-18T00:35:25.759Z,99.99
2018-10-18T00:36:25.746Z,99.98
2018-10-18T00:37:25.739Z,99.99
2018-10-18T00:38:25.767Z,99.99
2018-10-18T00:39:25.765Z,99.99
2018-10-18T00:40:25.727Z,99.99
2018-10-18T00:41:25.712Z,99.93
2018-10-18T00:42:25.682Z,99.99
2018-10-18T00:43:25.670Z,99.97
2018-10-18T00:44:25.694Z,99.99
2018-10-18T00:45:25.649Z,99.99
2018-10-18T00:46:25.639Z,99.99
2018-10-18T00:47:25.627Z,99.99
2018-10-18T00:48:25.618Z,99.99
2018-10-18T00:49:25.636Z,99.99
2018-10-18T00:50:25.620Z,99.99
2018-10-18T00:51:25.584Z,99.99
2018-10-18T00:52:25.575Z,99.99
2018-10-18T00:53:25.563Z,99.99
2018-10-18T00:54:25.551Z,99.99
2018-10-18T00:55:25.554Z,99.99
2018-10-18T00:56:25.542Z,99.99
2018-10-18T00:57:25.532Z,99.99
2018-10-18T00:58:25.510Z,99.99
2018-10-18T00:59:25.499Z,99.99
2018-10-18T01:00:25.506Z,99.99
2018-10-18T01:01:25.491Z,99.99
2018-10-18T01:02:25.466Z,99.99
2018-10-18T01:03:25.469Z,99.99
2018-10-18T01:04:25.467Z,99.91
2018-10-18T01:05:25.464Z,99.99
2018-10-18T01:06:25.435Z,99.99
2018-10-18T01:07:25.426Z,99.99
2018-10-18T01:08:25.405Z,99.99
2018-10-18T01:09:25.393Z,99.99
2018-10-18T01:10:25.395Z,99.99
2018-10-18T01:11:25.369Z,99.99
2018-10-18T01:12:25.558Z,99.99
2018-10-18T01:13:25.353Z,99.99
2018-10-18T01:14:25.337Z,99.99
2018-10-18T01:15:25.340Z,99.99
2018-10-18T01:16:25.318Z,99.99
2018-10-18T01:17:25.305Z,99.99
2018-10-18T01:18:25.322Z,99.99
2018-10-18T01:19:25.281Z,99.99
2018-10-18T01:20:25.287Z,99.99
2018-10-18T01:21:25.264Z,99.99
2018-10-18T01:22:25.254Z,99.99
2018-10-18T01:23:25.238Z,99.99
2018-10-18T01:24:25.244Z,99.99
2018-10-18T01:25:25.263Z,99.99
2018-10-18T01:26:25.208Z,99.99
2018-10-18T01:27:25.200Z,99.99
2018-10-18T01:28:25.190Z,99.99
2018-10-18T01:29:25.175Z,99.99
2018-10-18T01:30:25.179Z,99.99
2018-10-18T01:31:25.173Z,99.99
2018-10-18T01:32:25.142Z,99.99
2018-10-18T01:33:25.132Z,99.99
2018-10-18T01:34:25.123Z,99.99
2018-10-18T01:35:25.125Z,99.99
2018-10-18T01:36:25.102Z,99.99
2018-10-18T01:37:25.115Z,99.99
2018-10-18T01:38:25.083Z,99.99
2018-10-18T01:39:25.068Z,99.99
2018-10-18T01:40:25.070Z,99.99
2018-10-18T01:41:25.044Z,99.99
2018-10-18T01:42:25.039Z,99.99
2018-10-18T01:43:25.029Z,99.99
2018-10-18T01:44:25.051Z,99.99
2018-10-18T01:45:25.033Z,99.99
2018-10-18T01:46:24.994Z,99.99
2018-10-18T01:47:24.995Z,99.99
2018-10-18T01:48:24.973Z,99.99
2018-10-18T01:49:24.959Z,99.99
2018-10-18T01:50:24.981Z,99.99
2018-10-18T01:51:24.935Z,99.99
2018-10-18T01:52:24.928Z,99.99
2018-10-18T01:53:24.915Z,99.99
2018-10-18T01:54:24.905Z,99.99
2018-10-18T01:55:24.926Z,99.99
2018-10-18T01:56:24.883Z,99.99
2018-10-18T01:57:24.871Z,99.99
2018-10-18T01:58:24.865Z,99.99
2018-10-18T01:59:24.850Z,99.99
2018-10-18T02:00:24.856Z,99.99
2018-10-18T02:01:24.875Z,99.99
2018-10-18T02:02:24.863Z,99.99
2018-10-18T02:03:24.807Z,99.99
2018-10-18T02:04:24.796Z,99.99
2018-10-18T02:05:24.799Z,99.99
2018-10-18T02:06:24.773Z,99.99
2018-10-18T02:07:24.764Z,99.99
2018-10-18T02:08:24.773Z,99.99
2018-10-18T02:09:24.761Z,99.99
2018-10-18T02:10:24.766Z,99.99
2018-10-18T02:11:24.720Z,99.99
2018-10-18T02:12:24.709Z,99.99
2018-10-18T02:13:24.701Z,99.99
2018-10-18T02:14:24.690Z,99.99
2018-10-18T02:15:24.694Z,99.99
2018-10-18T02:16:24.687Z,99.99
2018-10-18T02:17:24.656Z,99.99
2018-10-18T02:18:24.642Z,99.99
2018-10-18T02:19:24.635Z,99.99
2018-10-18T02:20:24.637Z,99.99
2018-10-18T02:21:24.613Z,99.99
2018-10-18T02:22:24.619Z,99.99
2018-10-18T02:23:24.589Z,99.99
2018-10-18T02:24:24.584Z,99.99
2018-10-18T02:25:24.582Z,99.99
2018-10-18T02:26:24.561Z,99.99
2018-10-18T02:27:24.548Z,99.99
2018-10-18T02:28:24.560Z,99.99
2018-10-18T02:29:24.525Z,99.99
2018-10-18T02:30:24.528Z,99.99
2018-10-18T02:31:24.502Z,99.99
2018-10-18T02:32:24.496Z,99.99
2018-10-18T02:33:24.481Z,99.99
2018-10-18T02:34:24.481Z,99.99
2018-10-18T02:35:24.474Z,99.99
2018-10-18T02:36:24.449Z,99.99
2018-10-18T02:37:24.437Z,99.99
2018-10-18T02:38:24.427Z,99.99
2018-10-18T02:39:24.453Z,99.99
2018-10-18T02:40:24.542Z,99.99
2018-10-18T02:41:24.433Z,99.99
2018-10-18T02:42:24.384Z,99.99
2018-10-18T02:43:24.414Z,99.99
2018-10-18T02:44:24.373Z,99.99
2018-10-18T02:45:24.401Z,99.99
2018-10-18T02:46:24.363Z,99.99
2018-10-18T02:47:24.383Z,99.99
2018-10-18T02:48:24.322Z,99.99
2018-10-18T02:49:24.308Z,99.99
2018-10-18T02:50:24.314Z,99.99
2018-10-18T02:51:24.285Z,99.99
2018-10-18T02:52:24.275Z,99.99
2018-10-18T02:53:24.280Z,99.99
2018-10-18T02:54:24.256Z,99.99
2018-10-18T02:55:24.257Z,99.99
2018-10-18T02:56:24.231Z,99.99
2018-10-18T02:57:24.220Z,99.99
2018-10-18T02:58:24.209Z,99.99
2018-10-18T02:59:24.210Z,99.99
2018-10-18T03:00:24.224Z,99.99
2018-10-18T03:01:24.177Z,99.99
2018-10-18T03:02:24.171Z,99.99
2018-10-18T03:03:24.158Z,99.99
2018-10-18T03:04:24.146Z,99.99
2018-10-18T03:05:24.147Z,99.99
2018-10-18T03:06:24.139Z,99.99
2018-10-18T03:07:24.113Z,99.99
2018-10-18T03:08:24.105Z,99.99
2018-10-18T03:09:24.091Z,99.99
2018-10-18T03:10:24.097Z,99.99
2018-10-18T03:11:24.070Z,99.99
2018-10-18T03:12:24.083Z,99.99
2018-10-18T03:13:24.047Z,99.99
2018-10-18T03:14:24.043Z,99.99
2018-10-18T03:15:24.036Z,99.99
2018-10-18T03:16:24.035Z,99.99
2018-10-18T03:17:24.006Z,99.99
2018-10-18T03:18:24.034Z,99.99
2018-10-18T03:19:23.994Z,99.99
2018-10-18T03:20:23.972Z,99.99
2018-10-18T03:21:23.976Z,99.99
2018-10-18T03:22:23.950Z,99.99
2018-10-18T03:23:23.940Z,99.99
2018-10-18T03:24:23.952Z,99.99
2018-10-18T03:25:23.918Z,99.99
2018-10-18T03:26:23.921Z,99.99
2018-10-18T03:27:23.899Z,99.99
2018-10-18T03:28:23.884Z,99.99
2018-10-18T03:29:23.875Z,99.99
2018-10-18T03:30:23.889Z,99.99
2018-10-18T03:31:23.869Z,99.99
2018-10-18T03:32:23.842Z,99.99
2018-10-18T03:33:23.831Z,99.99
2018-10-18T03:34:23.824Z,99.99
2018-10-18T03:35:23.811Z,99.99
2018-10-18T03:36:23.834Z,99.99
2018-10-18T03:37:23.790Z,99.99
2018-10-18T03:38:23.778Z,99.99
2018-10-18T03:39:23.765Z,99.99
2018-10-18T03:40:23.756Z,99.99
2018-10-18T03:41:23.814Z,99.99
2018-10-18T03:42:23.750Z,99.99
2018-10-18T03:43:23.723Z,99.99
2018-10-18T03:44:23.715Z,99.99
2018-10-18T03:45:23.705Z,99.99
2018-10-18T03:46:23.720Z,99.99
2018-10-18T03:47:23.680Z,99.99
2018-10-18T03:48:23.683Z,99.99
2018-10-18T03:49:23.659Z,99.99
2018-10-18T03:50:23.650Z,99.99
2018-10-18T03:51:23.651Z,99.99
2018-10-18T03:52:23.629Z,99.99
2018-10-18T03:53:23.616Z,99.99
2018-10-18T03:54:23.623Z,99.99
2018-10-18T03:55:23.594Z,99.99
2018-10-18T03:56:23.599Z,99.99
2018-10-18T03:57:23.574Z,99.99
2018-10-18T03:58:23.564Z,99.99
2018-10-18T03:59:23.617Z,99.99
2018-10-18T04:00:23.571Z,99.99
2018-10-18T04:01:23.544Z,99.99
2018-10-18T04:02:23.546Z,99.99
2018-10-18T04:03:23.508Z,99.99
2018-10-18T04:04:23.498Z,99.99
2018-10-18T04:05:23.490Z,99.99
2018-10-18T04:06:23.511Z,99.99
2018-10-18T04:07:23.465Z,99.99
2018-10-18T04:08:23.484Z,99.99
2018-10-18T04:09:23.443Z,99.99
2018-10-18T04:10:23.441Z,99.99
2018-10-18T04:11:23.441Z,99.99
2018-10-18T04:12:23.615Z,99.99
2018-10-18T04:13:23.674Z,99.99
2018-10-18T04:14:23.390Z,99.99
2018-10-18T04:15:23.380Z,99.99
2018-10-18T04:16:23.384Z,99.99
2018-10-18T04:17:23.356Z,99.99
2018-10-18T04:18:23.459Z,99.99
2018-10-18T04:19:23.336Z,99.99
2018-10-18T04:20:23.329Z,99.99
2018-10-18T04:21:23.344Z,99.99
2018-10-18T04:22:23.303Z,99.99
2018-10-18T04:23:23.296Z,99.99
2018-10-18T04:24:23.306Z,99.99
2018-10-18T04:25:23.287Z,99.99
2018-10-18T04:26:23.276Z,99.99
2018-10-18T04:27:23.250Z,99.99
2018-10-18T04:28:23.240Z,99.99
2018-10-18T04:29:23.239Z,99.99
2018-10-18T04:30:23.217Z,99.99
2018-10-18T04:31:23.222Z,99.99
2018-10-18T04:32:23.197Z,99.99
2018-10-18T04:33:23.188Z,99.99
2018-10-18T04:34:23.173Z,99.99
2018-10-18T04:35:23.179Z,99.99
2018-10-18T04:36:23.185Z,99.99
2018-10-18T04:37:23.203Z,99.99
2018-10-18T04:38:23.152Z,99.99
2018-10-18T04:39:23.125Z,99.99
2018-10-18T04:40:23.130Z,99.99
2018-10-18T04:41:23.178Z,99.99
2018-10-18T04:42:23.088Z,99.99
2018-10-18T04:43:23.097Z,99.99
2018-10-18T04:44:23.065Z,99.99
2018-10-18T04:45:23.055Z,99.99
2018-10-18T04:46:23.057Z,99.99
2018-10-18T04:47:23.152Z,99.99
2018-10-18T04:48:23.149Z,99.99
2018-10-18T04:49:23.032Z,99.99
2018-10-18T04:50:23.001Z,99.99
2018-10-18T04:51:23.013Z,99.99
2018-10-18T04:52:22.981Z,99.99
2018-10-18T04:53:22.967Z,99.99
2018-10-18T04:54:22.957Z,99.99
2018-10-18T04:55:22.970Z,99.99
2018-10-18T04:56:22.951Z,99.99
2018-10-18T04:57:22.925Z,99.99
2018-10-18T04:58:22.914Z,99.99
2018-10-18T04:59:22.904Z,99.99
2018-10-18T05:00:22.896Z,99.99
2018-10-18T05:01:23.036Z,99.99
2018-10-18T05:02:22.889Z,99.99
2018-10-18T05:03:22.862Z,99.99
2018-10-18T05:04:22.849Z,99.99
2018-10-18T05:05:22.841Z,99.99
2018-10-18T05:06:22.830Z,99.99
2018-10-18T05:07:22.853Z,99.99
2018-10-18T05:08:22.809Z,99.99
2018-10-18T05:09:22.796Z,99.99
2018-10-18T05:10:22.785Z,99.99
2018-10-18T05:11:22.959Z,99.99
2018-10-18T05:12:22.779Z,99.99
2018-10-18T05:13:22.772Z,99.99
2018-10-18T05:14:22.744Z,99.99
2018-10-18T05:15:22.730Z,99.99
2018-10-18T05:16:22.722Z,99.99
2018-10-18T05:17:22.723Z,99.99
2018-10-18T05:18:22.698Z,99.99
2018-10-18T05:19:22.709Z,99.99
2018-10-18T05:20:22.678Z,99.99
2018-10-18T05:21:22.666Z,99.99
2018-10-18T05:22:22.671Z,99.99
2018-10-18T05:23:22.645Z,99.99
2018-10-18T05:24:22.633Z,99.99
2018-10-18T05:25:22.695Z,99.99
2018-10-18T05:26:22.627Z,99.99
2018-10-18T05:27:22.615Z,99.99
2018-10-18T05:28:22.591Z,99.99
2018-10-18T05:29:22.584Z,99.99
2018-10-18T05:30:22.569Z,99.99
2018-10-18T05:31:22.576Z,99.99
2018-10-18T05:32:22.569Z,99.99
2018-10-18T05:33:22.549Z,99.99
2018-10-18T05:34:22.529Z,99.99
2018-10-18T05:35:22.533Z,99.99
2018-10-18T05:36:22.513Z,99.99
2018-10-18T05:37:22.509Z,99.99
2018-10-18T05:38:22.485Z,99.99
2018-10-18T05:39:22.491Z,99.99
2018-10-18T05:40:22.461Z,99.99
2018-10-18T05:41:22.450Z,99.99
2018-10-18T05:42:22.452Z,99.99
2018-10-18T05:43:22.433Z,99.99
2018-10-18T05:44:22.418Z,99.99
2018-10-18T05:45:22.428Z,99.99
2018-10-18T05:46:22.395Z,99.99
2018-10-18T05:47:22.506Z,99.99
2018-10-18T05:48:22.374Z,99.99
2018-10-18T05:49:22.363Z,99.99
2018-10-18T05:50:22.357Z,99.99
2018-10-18T05:51:22.359Z,99.99
2018-10-18T05:52:22.346Z,99.99
2018-10-18T05:53:22.323Z,99.99
2018-10-18T05:54:22.310Z,99.99
2018-10-18T05:55:22.299Z,99.99
2018-10-18T05:56:22.288Z,99.99
2018-10-18T05:57:22.307Z,99.99
2018-10-18T05:58:22.265Z,99.99
2018-10-18T05:59:22.258Z,99.99
2018-10-18T06:00:22.344Z,99.99
2018-10-18T06:01:22.232Z,99.99
2018-10-18T06:02:22.243Z,99.99
2018-10-18T06:03:22.233Z,99.99
2018-10-18T06:04:22.200Z,99.99
2018-10-18T06:05:22.191Z,99.99
2018-10-18T06:06:22.180Z,99.99
2018-10-18T06:07:22.182Z,99.99
2018-10-18T06:08:22.161Z,99.99
2018-10-18T06:09:22.159Z,99.99
2018-10-18T06:10:22.213Z,99.99
2018-10-18T06:11:22.127Z,99.99
2018-10-18T06:12:22.131Z,99.99
2018-10-18T06:13:22.104Z,99.99
2018-10-18T06:14:22.092Z,99.99
2018-10-18T06:15:22.098Z,99.99
2018-10-18T06:16:22.092Z,99.99
2018-10-18T06:17:22.062Z,99.99
2018-10-18T06:18:22.063Z,99.99
2018-10-18T06:19:22.045Z,99.99
2018-10-18T06:20:22.031Z,99.99
2018-10-18T06:21:22.038Z,99.99
2018-10-18T06:22:22.028Z,99.99
2018-10-18T06:23:22.047Z,99.99
2018-10-18T06:24:21.988Z,99.99
2018-10-18T06:25:21.973Z,99.99
2018-10-18T06:26:21.962Z,99.99
2018-10-18T06:27:21.953Z,99.99
2018-10-18T06:28:21.972Z,99.99
2018-10-18T06:29:21.930Z,99.99
2018-10-18T06:30:21.919Z,99.99
2018-10-18T06:31:21.906Z,99.99
2018-10-18T06:32:21.896Z,99.99
2018-10-18T06:33:21.900Z,99.99
2018-10-18T06:34:21.887Z,99.99
2018-10-18T06:35:21.866Z,99.99
2018-10-18T06:36:21.856Z,99.99
2018-10-18T06:37:21.890Z,99.99
2018-10-18T06:38:21.846Z,99.99
2018-10-18T06:39:21.906Z,99.99
2018-10-18T06:40:21.824Z,99.99
2018-10-18T06:41:21.817Z,99.99
2018-10-18T06:42:21.793Z,99.99
2018-10-18T06:43:21.792Z,99.99
2018-10-18T06:44:21.769Z,99.99
2018-10-18T06:45:21.757Z,99.99
2018-10-18T06:46:21.754Z,99.99
2018-10-18T06:47:21.826Z,99.99
2018-10-18T06:48:21.738Z,99.99
2018-10-18T06:49:21.750Z,99.99
2018-10-18T06:50:21.703Z,99.99
2018-10-18T06:51:21.691Z,99.82
2018-10-18T06:52:21.681Z,99.99
2018-10-18T06:53:21.705Z,99.99
2018-10-18T06:54:21.660Z,99.99
2018-10-18T06:55:21.648Z,99.93
2018-10-18T06:56:21.639Z,99.57
2018-10-18T06:57:21.628Z,99.67
2018-10-18T06:58:21.628Z,99.57
2018-10-18T06:59:21.620Z,99.05
2018-10-18T07:00:21.644Z,98.65
2018-10-18T07:01:21.589Z,98.75
2018-10-18T07:02:21.576Z,98.24
2018-10-18T07:03:21.580Z,97.99
2018-10-18T07:04:21.551Z,97.73
2018-10-18T07:05:21.561Z,97.94
2018-10-18T07:06:21.532Z,97.94
2018-10-18T07:07:21.524Z,97.79
2018-10-18T07:08:21.520Z,98.20
2018-10-18T07:09:21.496Z,96.62
2018-10-18T07:10:21.486Z,96.72
2018-10-18T07:11:21.490Z,96.82
2018-10-18T07:12:21.467Z,96.41
2018-10-18T07:13:21.468Z,95.65
2018-10-18T07:14:21.444Z,96.26
2018-10-18T07:15:21.434Z,96.73
2018-10-18T07:16:21.423Z,96.63
2018-10-18T07:17:21.426Z,97.09
2018-10-18T07:18:21.415Z,95.97
2018-10-18T07:19:21.389Z,95.41
2018-10-18T07:20:21.379Z,94.34
2018-10-18T07:21:21.369Z,93.52
2018-10-18T07:22:21.359Z,92.91
2018-10-18T07:23:21.402Z,93.43
2018-10-18T07:24:21.340Z,91.74
2018-10-18T07:25:21.414Z,92.62
2018-10-18T07:26:21.313Z,91.05
2018-10-18T07:27:21.303Z,90.19
2018-10-18T07:28:21.320Z,90.29
2018-10-18T07:29:21.306Z,91.94
2018-10-18T07:30:21.284Z,89.65
2018-10-18T07:31:21.266Z,88.93
2018-10-18T07:32:21.262Z,88.85
2018-10-18T07:33:21.249Z,86.86
2018-10-18T07:34:21.231Z,87.57
2018-10-18T07:35:21.248Z,87.10
2018-10-18T07:36:21.204Z,87.20
2018-10-18T07:37:21.193Z,85.47
2018-10-18T07:38:21.247Z,86.29
2018-10-18T07:39:21.173Z,88.79
2018-10-18T07:40:21.163Z,88.85
2018-10-18T07:41:21.297Z,85.39
2018-10-18T07:42:21.237Z,86.06
2018-10-18T07:43:21.152Z,84.53
2018-10-18T07:44:21.128Z,84.06
2018-10-18T07:45:21.108Z,84.00
2018-10-18T07:46:21.098Z,84.61
2018-10-18T07:47:21.084Z,85.19
2018-10-18T07:48:21.089Z,85.63
2018-10-18T07:49:21.063Z,84.98
2018-10-18T07:50:21.068Z,87.18
2018-10-18T07:51:21.041Z,86.02
2018-10-18T07:52:21.031Z,84.09
2018-10-18T07:53:21.046Z,83.78
2018-10-18T07:54:21.007Z,82.76
2018-10-18T07:55:20.997Z,83.13
2018-10-18T07:56:21.001Z,82.62
2018-10-18T07:57:20.991Z,83.20
2018-10-18T07:58:21.014Z,82.38
2018-10-18T07:59:20.996Z,80.72
2018-10-18T08:00:21.119Z,84.88
2018-10-18T08:01:20.940Z,82.92
2018-10-18T08:02:20.972Z,80.33
2018-10-18T08:03:20.929Z,79.12
2018-10-18T08:04:20.954Z,80.33
2018-10-18T08:05:20.898Z,83.54
2018-10-18T08:06:20.911Z,80.40
2018-10-18T08:07:20.881Z,82.84
2018-10-18T08:08:20.870Z,82.29
2018-10-18T08:09:20.883Z,80.83
2018-10-18T08:10:20.840Z,79.31
2018-10-18T08:11:20.832Z,78.60
2018-10-18T08:12:20.819Z,78.87
2018-10-18T08:13:20.856Z,79.47
2018-10-18T08:14:20.854Z,78.06
2018-10-18T08:15:20.791Z,79.13
2018-10-18T08:16:20.793Z,77.11
2018-10-18T08:17:20.850Z,77.04
2018-10-18T08:18:20.765Z,77.51
2018-10-18T08:19:20.793Z,76.60
2018-10-18T08:20:20.748Z,78.89
2018-10-18T08:21:20.716Z,78.89
2018-10-18T08:22:20.724Z,75.25
2018-10-18T08:23:20.693Z,76.40
2018-10-18T08:24:20.720Z,75.62
2018-10-18T08:25:20.678Z,78.66
2018-10-18T08:26:20.663Z,80.08
2018-10-18T08:27:20.685Z,79.03
2018-10-18T08:28:20.648Z,78.02
2018-10-18T08:29:20.658Z,77.51
2018-10-18T08:30:20.627Z,75.79
2018-10-18T08:31:20.722Z,76.94
2018-10-18T08:32:20.596Z,77.99
2018-10-18T08:33:20.593Z,77.25
2018-10-18T08:34:20.611Z,80.08
2018-10-18T08:35:20.572Z,78.97
2018-10-18T08:36:20.564Z,78.22
2018-10-18T08:37:20.597Z,76.94
2018-10-18T08:38:20.592Z,78.19
2018-10-18T08:39:20.578Z,78.50
2018-10-18T08:40:20.518Z,79.31
2018-10-18T08:41:20.506Z,79.98
2018-10-18T08:42:20.498Z,79.07
2018-10-18T08:43:20.476Z,79.03
2018-10-18T08:44:20.523Z,78.93
2018-10-18T08:45:20.458Z,76.90
2018-10-18T08:46:20.449Z,77.64
2018-10-18T08:47:20.484Z,77.50
2018-10-18T08:48:20.469Z,77.57
2018-10-18T08:49:20.439Z,73.63
2018-10-18T08:50:20.459Z,74.74
2018-10-18T08:51:20.407Z,72.81
2018-10-18T08:52:20.394Z,74.74
2018-10-18T08:53:20.375Z,73.22
2018-10-18T08:54:20.358Z,73.35
2018-10-18T08:55:20.438Z,71.20
2018-10-18T08:56:20.343Z,72.24
2018-10-18T08:57:20.319Z,71.47
2018-10-18T08:58:20.342Z,71.47
2018-10-18T08:59:20.376Z,69.92
2018-10-18T09:00:20.301Z,71.87
2018-10-18T09:01:20.277Z,69.82
2018-10-18T09:02:20.269Z,68.78
2018-10-18T09:03:20.267Z,67.41
2018-10-18T09:04:20.272Z,66.00
2018-10-18T09:05:20.255Z,65.30
2018-10-18T09:06:20.245Z,67.47
2018-10-18T09:07:20.220Z,67.18
2018-10-18T09:08:20.203Z,65.56
2018-10-18T09:09:20.203Z,66.13
2018-10-18T09:10:20.190Z,66.03
2018-10-18T09:11:20.175Z,66.16
2018-10-18T09:12:20.161Z,67.27
2018-10-18T09:13:20.235Z,68.44
2018-10-18T09:14:20.164Z,65.97
2018-10-18T09:15:20.166Z,64.46
2018-10-18T09:16:20.130Z,65.44
2018-10-18T09:17:20.102Z,65.56
2018-10-18T09:18:20.102Z,64.83
2018-10-18T09:19:20.088Z,65.47
2018-10-18T09:20:20.094Z,64.69
2018-10-18T09:21:20.078Z,66.00
2018-10-18T09:22:20.292Z,66.67
2018-10-18T09:23:20.049Z,65.53
2018-10-18T09:24:20.030Z,66.94
2018-10-18T09:25:20.110Z,64.96
2018-10-18T09:26:20.003Z,65.47
2018-10-18T09:27:19.994Z,67.07
2018-10-18T09:28:20.002Z,66.07
2018-10-18T09:29:19.974Z,67.31
2018-10-18T09:30:20.012Z,64.70
2018-10-18T09:31:19.977Z,65.30
2018-10-18T09:32:19.959Z,63.79
2018-10-18T09:33:19.936Z,63.49
2018-10-18T09:34:19.918Z,62.26
2018-10-18T09:35:19.973Z,61.58
2018-10-18T09:36:19.901Z,63.32
2018-10-18T09:37:19.897Z,64.83
2018-10-18T09:38:19.905Z,63.90
2018-10-18T09:39:19.872Z,64.00
2018-10-18T09:40:19.879Z,63.79
2018-10-18T09:41:19.860Z,63.22
2018-10-18T09:42:19.832Z,65.23
2018-10-18T09:43:19.865Z,63.93
2018-10-18T09:44:19.829Z,64.76
2018-10-18T09:45:19.822Z,64.46
2018-10-18T09:46:19.791Z,66.30
2018-10-18T09:47:19.781Z,65.93
2018-10-18T09:48:19.765Z,66.16
2018-10-18T09:49:19.756Z,67.80
2018-10-18T09:50:19.767Z,68.62
2018-10-18T09:51:19.756Z,67.27
2018-10-18T09:52:19.730Z,64.30
2018-10-18T09:53:19.724Z,65.57
2018-10-18T09:54:19.712Z,64.14
2018-10-18T09:55:19.839Z,63.84
2018-10-18T09:56:19.789Z,63.84
2018-10-18T09:57:19.684Z,64.04
2018-10-18T09:58:19.659Z,63.50
2018-10-18T09:59:19.647Z,62.39
2018-10-18T10:00:19.658Z,64.00
2018-10-18T10:01:19.631Z,65.00
2018-10-18T10:02:19.616Z,65.20
2018-10-18T10:03:19.598Z,63.87
2018-10-18T10:04:19.756Z,63.90
2018-10-18T10:05:19.597Z,63.07
2018-10-18T10:06:19.577Z,62.04
2018-10-18T10:07:19.559Z,63.01
2018-10-18T10:08:19.554Z,64.92
2018-10-18T10:09:19.545Z,61.31
2018-10-18T10:10:19.554Z,62.04
2018-10-18T10:11:19.514Z,61.74
2018-10-18T10:12:19.512Z,62.71
2018-10-18T10:13:19.661Z,62.94
2018-10-18T10:14:19.534Z,62.20
2018-10-18T10:15:19.553Z,62.43
2018-10-18T10:16:19.520Z,64.07
2018-10-18T10:17:19.528Z,64.53
2018-10-18T10:18:19.528Z,65.47
2018-10-18T10:19:19.459Z,65.67
2018-10-18T10:20:19.420Z,65.20
2018-10-18T10:21:19.420Z,65.30
2018-10-18T10:22:19.394Z,65.37
2018-10-18T10:23:19.393Z,63.43
2018-10-18T10:24:19.370Z,63.98
2018-10-18T10:25:19.484Z,62.14
2018-10-18T10:26:19.370Z,61.81
2018-10-18T10:27:19.335Z,59.58
2018-10-18T10:28:19.329Z,60.38
2018-10-18T10:29:19.321Z,60.58
2018-10-18T10:30:19.491Z,59.28
2018-10-18T10:31:19.415Z,58.98
2018-10-18T10:32:19.294Z,59.75
2018-10-18T10:33:19.332Z,59.89
2018-10-18T10:34:19.272Z,57.64
2018-10-18T10:35:19.262Z,56.59
2018-10-18T10:36:19.261Z,57.69
2018-10-18T10:37:19.320Z,59.92
2018-10-18T10:38:19.217Z,59.22
2018-10-18T10:39:19.344Z,58.05
2018-10-18T10:40:19.307Z,59.62
2018-10-18T10:41:19.196Z,57.69
2018-10-18T10:42:19.303Z,56.74
2018-10-18T10:43:19.170Z,55.94
2018-10-18T10:44:19.246Z,57.24
2018-10-18T10:45:19.257Z,58.07
2018-10-18T10:46:19.237Z,59.28
2018-10-18T10:47:19.119Z,59.65
2018-10-18T10:48:19.211Z,58.82
2018-10-18T10:49:19.212Z,57.50
2018-10-18T10:50:19.198Z,57.42
2018-10-18T10:51:19.109Z,61.12
2018-10-18T10:52:19.161Z,58.69
2018-10-18T10:53:19.056Z,57.39
2018-10-18T10:54:19.134Z,58.59
2018-10-18T10:55:19.039Z,56.79
2018-10-18T10:56:19.097Z,58.42
2018-10-18T10:57:19.204Z,58.80
2018-10-18T10:58:19.040Z,58.76
2018-10-18T10:59:18.991Z,57.50
2018-10-18T11:00:19.054Z,57.35
2018-10-18T11:01:18.987Z,59.38
2018-10-18T11:02:18.959Z,58.95
2018-10-18T11:03:19.099Z,59.75
2018-10-18T11:04:18.949Z,58.62
2018-10-18T11:05:18.928Z,59.59
2018-10-18T11:06:19.062Z,57.59
2018-10-18T11:07:18.915Z,57.57
2018-10-18T11:08:18.898Z,56.27
2018-10-18T11:09:19.020Z,56.87
2018-10-18T11:10:18.874Z,57.46
2018-10-18T11:11:18.881Z,56.34
2018-10-18T11:12:18.907Z,56.31
2018-10-18T11:13:18.841Z,55.24
2018-10-18T11:14:18.895Z,58.97
2018-10-18T11:15:18.919Z,56.96
2018-10-18T11:16:18.837Z,56.87
2018-10-18T11:17:18.840Z,57.89
2018-10-18T11:18:18.803Z,57.46
2018-10-18T11:19:18.774Z,56.27
2018-10-18T11:20:18.765Z,57.46
2018-10-18T11:21:18.852Z,56.07
2018-10-18T11:22:18.763Z,57.72
2018-10-18T11:23:18.730Z,59.92
2018-10-18T11:24:18.770Z,60.92
2018-10-18T11:25:18.726Z,58.68
2018-10-18T11:26:18.821Z,60.01
2018-10-18T11:27:18.792Z,60.03
2018-10-18T11:28:18.674Z,60.27
2018-10-18T11:29:18.693Z,60.19
2018-10-18T11:30:18.774Z,61.40
2018-10-18T11:31:18.655Z,63.53
2018-10-18T11:32:18.663Z,61.33
2018-10-18T11:33:18.805Z,64.21
2018-10-18T11:34:18.656Z,63.40
2018-10-18T11:35:18.600Z,62.10
2018-10-18T11:36:18.622Z,62.17
2018-10-18T11:37:18.593Z,61.57
2018-10-18T11:38:18.658Z,61.10
2018-10-18T11:39:18.560Z,63.47
2018-10-18T11:40:18.545Z,62.37
2018-10-18T11:41:18.540Z,62.94
2018-10-18T11:42:18.750Z,61.91
2018-10-18T11:43:18.513Z,61.11
2018-10-18T11:44:18.507Z,61.51
2018-10-18T11:45:18.496Z,63.92
2018-10-18T11:46:18.485Z,58.70
2018-10-18T11:47:18.503Z,59.53
2018-10-18T11:48:18.461Z,59.83
2018-10-18T11:49:18.459Z,60.36
2018-10-18T11:50:18.515Z,60.49
2018-10-18T11:51:18.437Z,62.27
2018-10-18T11:52:18.430Z,61.17
2018-10-18T11:53:18.415Z,61.36
2018-10-18T11:54:18.393Z,59.96
2018-10-18T11:55:18.380Z,60.97
2018-10-18T11:56:18.423Z,60.64
2018-10-18T11:57:18.383Z,62.84
2018-10-18T11:58:18.354Z,60.91
2018-10-18T11:59:18.432Z,62.11
2018-10-18T12:00:18.337Z,59.81
2018-10-18T12:01:18.425Z,59.74
2018-10-18T12:02:18.481Z,59.56
2018-10-18T12:03:18.302Z,61.67
2018-10-18T12:04:18.284Z,61.04
2018-10-18T12:05:18.327Z,59.53
2018-10-18T12:06:18.273Z,60.84
2018-10-18T12:07:18.298Z,59.83
2018-10-18T12:08:18.375Z,60.33
2018-10-18T12:09:18.226Z,59.86
2018-10-18T12:10:18.221Z,59.86
2018-10-18T12:11:18.209Z,60.16
2018-10-18T12:12:18.216Z,59.26
2018-10-18T12:13:18.196Z,59.03
2018-10-18T12:14:18.232Z,61.01
2018-10-18T12:15:18.158Z,59.70
2018-10-18T12:16:18.143Z,60.01
2018-10-18T12:17:18.211Z,59.70
2018-10-18T12:18:18.149Z,61.48
2018-10-18T12:19:18.109Z,58.61
2018-10-18T12:20:18.245Z,59.38
2018-10-18T12:21:18.097Z,59.45
2018-10-18T12:22:18.081Z,59.48
2018-10-18T12:23:18.120Z,60.28
2018-10-18T12:24:18.057Z,58.07
2018-10-18T12:25:18.050Z,60.98
2018-10-18T12:26:18.146Z,59.38
2018-10-18T12:27:18.034Z,60.35
2018-10-18T12:28:18.026Z,59.52
2018-10-18T12:29:18.131Z,59.42
2018-10-18T12:30:18.009Z,59.42
2018-10-18T12:31:17.984Z,57.75
2018-10-18T12:32:17.966Z,59.45
2018-10-18T12:33:17.973Z,58.15
2018-10-18T12:34:17.941Z,58.92
2018-10-18T12:35:18.080Z,57.42
2018-10-18T12:36:17.923Z,58.52
2018-10-18T12:37:17.911Z,58.80
2018-10-18T12:38:17.937Z,56.59
2018-10-18T12:39:17.899Z,57.72
2018-10-18T12:40:17.941Z,60.32
2018-10-18T12:41:18.097Z,56.79
2018-10-18T12:42:17.856Z,59.19
2018-10-18T12:43:17.858Z,59.39
2018-10-18T12:44:17.855Z,57.89
2018-10-18T12:45:17.824Z,58.69
2018-10-18T12:46:17.814Z,59.59
2018-10-18T12:47:17.812Z,59.27
2018-10-18T12:48:17.948Z,56.57
2018-10-18T12:49:17.795Z,56.77
2018-10-18T12:50:17.908Z,56.57
2018-10-18T12:51:17.757Z,58.17
2018-10-18T12:52:17.756Z,57.67